createdAt,value
2024-04-23T00:00:45.224Z,20.88
2024-04-23T00:03:12.174Z,20.15
2024-04-23T00:05:38.962Z,20.17
2024-04-23T00:08:06.267Z,18.98
2024-04-23T00:10:33.180Z,19.92
2024-04-23T00:13:00.056Z,20.38
2024-04-23T00:15:26.913Z,18.80
2024-04-23T00:17:53.801Z,19.27
2024-04-23T00:20:20.635Z,18.00
2024-04-23T00:22:47.481Z,18.83
2024-04-23T00:25:14.266Z,18.70
2024-04-23T00:27:41.059Z,19.98
2024-04-23T00:30:08.560Z,21.67
2024-04-23T00:32:35.451Z,21.27
2024-04-23T00:35:02.977Z,19.90
2024-04-23T00:37:29.890Z,22.50
2024-04-23T00:39:56.695Z,23.38
2024-04-23T00:42:23.536Z,21.92
2024-04-23T00:44:53.697Z,23.45
2024-04-23T00:47:22.131Z,22.08
2024-04-23T00:49:50.641Z,24.83
2024-04-23T00:52:18.331Z,22.83
2024-04-23T00:54:45.531Z,24.02
2024-04-23T00:57:12.554Z,23.55
2024-04-23T00:59:39.475Z,22.40
2024-04-23T01:02:06.413Z,20.80
2024-04-23T01:04:33.456Z,20.88
2024-04-23T01:07:00.474Z,20.95
2024-04-23T01:09:27.422Z,20.65
2024-04-23T01:11:54.276Z,21.42
2024-04-23T01:14:21.237Z,19.58
2024-04-23T01:16:50.403Z,21.13
2024-04-23T01:19:29.401Z,19.98
2024-04-23T01:22:04.254Z,19.90
2024-04-23T01:24:38.534Z,19.45
2024-04-23T01:27:06.286Z,19.98
2024-04-23T01:29:34.021Z,20.55
2024-04-23T01:32:04.505Z,20.58
2024-04-23T01:34:33.339Z,19.60
2024-04-23T01:37:01.113Z,20.35
2024-04-23T01:39:29.367Z,20.15
2024-04-23T01:41:57.334Z,19.55
2024-04-23T01:44:24.395Z,21.40
2024-04-23T01:46:51.618Z,19.63
2024-04-23T01:49:18.543Z,19.80
2024-04-23T01:51:45.740Z,19.27
2024-04-23T01:54:12.511Z,17.90
2024-04-23T01:56:39.369Z,17.65
2024-04-23T01:59:06.216Z,17.27
2024-04-23T02:01:39.176Z,17.52
2024-04-23T02:04:08.984Z,18.02
2024-04-23T02:06:35.917Z,16.70
2024-04-23T02:09:04.052Z,16.02
2024-04-23T02:11:31.573Z,16.60
2024-04-23T02:13:58.616Z,14.98
2024-04-23T02:16:25.456Z,2.33
2024-04-23T02:18:52.237Z,15.18
2024-04-23T02:21:19.037Z,14.95
2024-04-23T02:23:45.853Z,14.45
2024-04-23T02:26:12.858Z,13.68
2024-04-23T02:28:39.708Z,13.80
2024-04-23T02:31:06.582Z,1.67
2024-04-23T02:33:33.532Z,11.32
2024-04-23T02:36:00.490Z,3.08
2024-04-23T02:38:27.294Z,1.08
2024-04-23T02:40:55.281Z,9.48
2024-04-23T02:43:22.192Z,8.07
2024-04-23T02:45:48.975Z,7.95
2024-04-23T02:48:15.846Z,7.63
2024-04-23T02:50:42.866Z,1.73
2024-04-23T02:53:09.684Z,2.10
2024-04-23T02:55:36.538Z,0.85
2024-04-23T02:58:03.346Z,7.28
2024-04-23T03:00:30.511Z,6.38
2024-04-23T03:02:57.566Z,4.82
2024-04-23T03:05:24.565Z,4.60
2024-04-23T03:07:51.400Z,4.20
2024-04-23T03:10:18.267Z,3.97
2024-04-23T03:12:45.027Z,4.05
2024-04-23T03:15:11.792Z,4.00
2024-04-23T03:17:38.666Z,4.57
2024-04-23T03:20:06.616Z,3.90
2024-04-23T03:22:33.471Z,3.53
2024-04-23T03:25:00.351Z,3.20
2024-04-23T03:27:27.195Z,3.78
2024-04-23T03:29:53.981Z,0.65
2024-04-23T03:32:20.989Z,0.40
2024-04-23T03:34:47.908Z,0.77
2024-04-23T03:37:14.746Z,0.82
2024-04-23T03:39:41.901Z,0.93
2024-04-23T03:42:08.808Z,0.45
2024-04-23T03:44:38.412Z,1.00
2024-04-23T03:47:06.804Z,0.90
2024-04-23T03:49:33.676Z,0.30
2024-04-23T03:52:10.589Z,1.05
2024-04-23T03:54:38.166Z,2.67
2024-04-23T03:57:04.971Z,0.40
2024-04-23T03:59:31.944Z,0.73
2024-04-23T04:02:17.557Z,2.50
2024-04-23T04:05:03.222Z,2.45
2024-04-23T04:07:30.133Z,2.88
2024-04-23T04:09:56.947Z,0.40
2024-04-23T04:12:24.359Z,0.20
2024-04-23T04:14:51.115Z,1.73
2024-04-23T04:17:18.016Z,2.63
2024-04-23T04:19:44.862Z,0.85
2024-04-23T04:22:11.691Z,0.50
2024-04-23T04:24:38.466Z,1.30
2024-04-23T04:27:05.228Z,2.92
2024-04-23T04:29:32.043Z,1.08
2024-04-23T04:31:58.951Z,0.77
2024-04-23T04:34:25.817Z,0.30
2024-04-23T04:36:52.582Z,0.98
2024-04-23T04:39:19.369Z,1.13
2024-04-23T04:41:46.188Z,0.50
2024-04-23T04:44:13.073Z,0.60
2024-04-23T04:46:39.995Z,0.40
2024-04-23T04:49:06.794Z,0.40
2024-04-23T04:51:33.646Z,0.38
2024-04-23T04:54:00.481Z,3.15
2024-04-23T04:56:30.585Z,0.73
2024-04-23T04:58:57.477Z,1.10
2024-04-23T05:01:24.305Z,0.45
2024-04-23T05:03:51.116Z,3.08
2024-04-23T05:06:17.924Z,1.48
2024-04-23T05:08:44.713Z,0.30
2024-04-23T05:11:11.608Z,1.17
2024-04-23T05:13:38.454Z,2.78
2024-04-23T05:16:05.614Z,2.63
2024-04-23T05:18:34.347Z,2.95
2024-04-23T05:21:02.169Z,2.65
2024-04-23T05:23:29.091Z,2.88
2024-04-23T05:25:55.905Z,0.50
2024-04-23T05:28:22.719Z,0.63
2024-04-23T05:31:08.150Z,1.27
2024-04-23T05:33:35.022Z,0.90
2024-04-23T05:36:01.885Z,0.50
2024-04-23T05:38:29.268Z,0.30
2024-04-23T05:40:56.171Z,1.00
2024-04-23T05:43:22.974Z,0.52
2024-04-23T05:45:50.335Z,0.50
2024-04-23T05:48:54.486Z,3.13
2024-04-23T05:51:58.766Z,3.22
2024-04-23T05:55:03.083Z,3.05
2024-04-23T05:57:29.902Z,3.05
2024-04-23T05:59:56.681Z,3.05
2024-04-23T06:02:25.418Z,0.35
2024-04-23T06:04:52.367Z,1.35
2024-04-23T06:07:19.256Z,1.45
2024-04-23T06:09:46.652Z,0.30
2024-04-23T06:12:13.403Z,0.40
2024-04-23T06:14:44.433Z,0.50
2024-04-23T06:17:28.437Z,3.15
2024-04-23T06:20:02.864Z,0.60
2024-04-23T06:22:32.433Z,1.70
2024-04-23T06:24:59.277Z,3.30
2024-04-23T06:27:26.325Z,2.95
2024-04-23T06:29:54.140Z,3.28
2024-04-23T06:32:22.771Z,3.58
2024-04-23T06:34:50.714Z,2.92
2024-04-23T06:37:17.595Z,3.25
2024-04-23T06:39:45.186Z,2.83
2024-04-23T06:42:12.043Z,0.65
2024-04-23T06:44:38.928Z,0.60
2024-04-23T06:47:05.773Z,0.38
2024-04-23T06:49:32.769Z,0.73
2024-04-23T06:52:00.279Z,2.80
2024-04-23T06:54:27.945Z,3.60
2024-04-23T06:56:54.731Z,0.50
2024-04-23T06:59:21.509Z,1.25
2024-04-23T07:01:48.517Z,0.93
2024-04-23T07:04:15.400Z,0.52
2024-04-23T07:06:42.170Z,0.30
2024-04-23T07:09:10.400Z,0.68
2024-04-23T07:11:37.303Z,1.70
2024-04-23T07:14:05.304Z,1.10
2024-04-23T07:16:32.260Z,1.15
2024-04-23T07:19:02.233Z,3.55
2024-04-23T07:21:29.760Z,0.63
2024-04-23T07:23:56.864Z,3.63
2024-04-23T07:26:25.545Z,3.13
2024-04-23T07:28:52.368Z,3.35
2024-04-23T07:31:19.326Z,3.78
2024-04-23T07:33:46.132Z,3.13
2024-04-23T07:36:13.064Z,3.47
2024-04-23T07:38:40.032Z,3.63
2024-04-23T07:41:07.143Z,3.47
2024-04-23T07:43:34.190Z,4.05
2024-04-23T07:46:01.163Z,3.70
2024-04-23T07:48:28.348Z,3.38
2024-04-23T07:50:55.237Z,2.75
2024-04-23T07:53:22.018Z,4.07
2024-04-23T07:55:48.857Z,4.03
2024-04-23T07:58:15.694Z,2.63
2024-04-23T08:00:42.501Z,3.20
2024-04-23T08:03:11.545Z,3.70
2024-04-23T08:05:38.681Z,3.42
2024-04-23T08:08:06.039Z,2.92
2024-04-23T08:10:33.488Z,2.72
2024-04-23T08:13:00.317Z,3.20
2024-04-23T08:15:27.471Z,2.55
2024-04-23T08:17:54.490Z,2.40
2024-04-23T08:20:21.418Z,2.40
2024-04-23T08:22:48.482Z,2.95
2024-04-23T08:25:18.902Z,2.75
2024-04-23T08:27:47.433Z,2.20
2024-04-23T08:30:14.570Z,2.10
2024-04-23T08:32:42.113Z,2.22
2024-04-23T08:35:09.182Z,2.58
2024-04-23T08:37:36.557Z,2.20
2024-04-23T08:40:03.537Z,2.90
2024-04-23T08:42:34.684Z,2.30
2024-04-23T08:45:03.451Z,2.03
2024-04-23T08:47:30.653Z,2.33
2024-04-23T08:49:58.413Z,1.80
2024-04-23T08:52:25.426Z,1.92
2024-04-23T08:54:52.501Z,1.63
2024-04-23T08:57:20.923Z,2.00
2024-04-23T08:59:49.850Z,1.73
2024-04-23T09:02:31.660Z,1.65
2024-04-23T09:05:01.787Z,1.95
2024-04-23T09:07:33.262Z,2.20
2024-04-23T09:10:03.205Z,1.75
2024-04-23T09:12:31.015Z,1.58
2024-04-23T09:15:00.938Z,2.40
2024-04-23T09:17:31.799Z,2.03
2024-04-23T09:19:58.914Z,2.38
2024-04-23T09:22:28.340Z,1.83
2024-04-23T09:25:03.524Z,2.45
2024-04-23T09:27:34.493Z,2.00
2024-04-23T09:30:02.970Z,2.50
2024-04-23T09:32:30.974Z,2.08
2024-04-23T09:34:58.951Z,2.55
2024-04-23T09:37:26.992Z,2.30
2024-04-23T09:40:03.150Z,1.85
2024-04-23T09:42:31.006Z,1.98
2024-04-23T09:44:59.508Z,2.08
2024-04-23T09:47:27.924Z,2.92
2024-04-23T09:49:57.367Z,2.33
2024-04-23T09:52:37.322Z,2.15
2024-04-23T09:55:06.704Z,1.35
2024-04-23T09:57:37.534Z,1.92
2024-04-23T10:00:05.780Z,1.30
2024-04-23T10:02:39.024Z,1.50
2024-04-23T10:05:11.537Z,1.50
2024-04-23T10:07:51.697Z,1.60
2024-04-23T10:10:29.332Z,1.75
2024-04-23T10:12:58.407Z,1.52
2024-04-23T10:15:38.806Z,1.50
2024-04-23T10:18:13.899Z,1.60
2024-04-23T10:20:46.224Z,1.85
2024-04-23T10:23:16.802Z,1.90
2024-04-23T10:25:44.277Z,1.92
2024-04-23T10:28:11.509Z,2.30
2024-04-23T10:30:38.660Z,1.90
2024-04-23T10:33:09.027Z,2.00
2024-04-23T10:35:38.188Z,1.55
2024-04-23T10:38:07.889Z,2.05
2024-04-23T10:40:43.023Z,2.25
2024-04-23T10:43:15.877Z,1.42
2024-04-23T10:45:43.080Z,1.90
2024-04-23T10:48:11.460Z,2.08
2024-04-23T10:50:39.048Z,2.20
2024-04-23T10:53:06.722Z,2.00
2024-04-23T10:55:33.785Z,2.10
2024-04-23T10:58:05.532Z,1.90
2024-04-23T11:00:37.126Z,1.75
2024-04-23T11:03:18.651Z,1.95
2024-04-23T11:05:47.930Z,2.03
2024-04-23T11:08:26.508Z,1.30
2024-04-23T11:11:05.090Z,1.67
2024-04-23T11:13:39.978Z,1.38
2024-04-23T11:16:19.760Z,1.63
2024-04-23T11:18:51.074Z,1.65
2024-04-23T11:21:25.890Z,1.65
2024-04-23T11:23:53.624Z,1.63
2024-04-23T11:26:24.157Z,2.03
2024-04-23T11:28:51.476Z,1.38
2024-04-23T11:31:20.317Z,1.50
2024-04-23T11:33:50.242Z,1.70
2024-04-23T11:36:25.785Z,2.53
2024-04-23T11:38:55.657Z,2.03
2024-04-23T11:41:22.566Z,1.90
2024-04-23T11:43:49.536Z,2.08
2024-04-23T11:46:17.346Z,1.30
2024-04-23T11:48:45.248Z,1.52
2024-04-23T11:51:15.437Z,1.95
2024-04-23T11:53:42.770Z,2.03
2024-04-23T11:56:10.590Z,1.70
2024-04-23T11:58:43.931Z,1.90
2024-04-23T12:01:10.966Z,1.58
2024-04-23T12:03:39.116Z,2.03
2024-04-23T12:06:07.896Z,1.73
2024-04-23T12:08:36.012Z,2.10
2024-04-23T12:11:04.349Z,1.40
2024-04-23T12:13:31.308Z,1.40
2024-04-23T12:16:02.214Z,1.48
2024-04-23T12:18:29.482Z,1.52
2024-04-23T12:20:56.373Z,1.27
2024-04-23T12:23:23.240Z,1.60
2024-04-23T12:25:53.001Z,1.33
2024-04-23T12:28:19.801Z,1.45
2024-04-23T12:30:46.891Z,1.65
2024-04-23T12:33:14.416Z,1.23
2024-04-23T12:35:41.705Z,1.10
2024-04-23T12:38:13.244Z,1.48
2024-04-23T12:40:41.385Z,1.40
2024-04-23T12:43:12.513Z,1.80
2024-04-23T12:45:40.259Z,2.03
2024-04-23T12:48:07.719Z,1.80
2024-04-23T12:50:34.882Z,2.15
2024-04-23T12:53:02.608Z,2.03
2024-04-23T12:55:31.581Z,1.60
2024-04-23T12:57:59.530Z,1.40
2024-04-23T13:00:26.376Z,2.13
2024-04-23T13:02:53.435Z,1.30
2024-04-23T13:05:21.586Z,1.80
2024-04-23T13:07:48.781Z,1.30
2024-04-23T13:10:16.559Z,1.70
2024-04-23T13:12:43.548Z,1.70
2024-04-23T13:15:11.601Z,1.33
2024-04-23T13:17:38.595Z,1.95
2024-04-23T13:20:05.816Z,1.80
2024-04-23T13:22:32.719Z,1.80
2024-04-23T13:24:59.566Z,1.92
2024-04-23T13:27:26.749Z,1.98
2024-04-23T13:29:53.569Z,1.70
2024-04-23T13:32:20.432Z,1.70
2024-04-23T13:34:47.428Z,2.42
2024-04-23T13:37:14.921Z,1.70
2024-04-23T13:39:41.817Z,2.35
2024-04-23T13:42:08.603Z,2.55
2024-04-23T13:44:37.381Z,1.50
2024-04-23T13:47:05.816Z,2.45
2024-04-23T13:49:36.506Z,1.90
2024-04-23T13:52:03.839Z,1.50
2024-04-23T13:54:30.781Z,2.42
2024-04-23T13:56:57.989Z,1.95
2024-04-23T13:59:25.740Z,1.42
2024-04-23T14:01:52.907Z,2.00
2024-04-23T14:04:19.799Z,1.85
2024-04-23T14:06:47.960Z,1.90
2024-04-23T14:09:14.737Z,1.58
2024-04-23T14:11:43.496Z,2.47
2024-04-23T14:14:11.848Z,1.80
2024-04-23T14:16:38.937Z,1.83
2024-04-23T14:19:05.845Z,2.03
2024-04-23T14:21:32.636Z,2.03
2024-04-23T14:23:59.490Z,2.05
2024-04-23T14:26:28.704Z,2.33
2024-04-23T14:28:55.899Z,2.00
2024-04-23T14:31:22.888Z,2.05
2024-04-23T14:33:49.834Z,2.15
2024-04-23T14:36:16.631Z,2.22
2024-04-23T14:38:43.502Z,3.00
2024-04-23T14:41:10.599Z,2.03
2024-04-23T14:43:37.665Z,2.78
2024-04-23T14:46:14.729Z,2.35
2024-04-23T14:48:42.144Z,2.53
2024-04-23T14:51:10.383Z,2.10
2024-04-23T14:53:37.256Z,2.13
2024-04-23T14:56:05.617Z,2.55
2024-04-23T14:58:34.268Z,2.45
2024-04-23T15:01:02.478Z,2.13
2024-04-23T15:03:32.416Z,2.58
2024-04-23T15:05:59.264Z,2.50
2024-04-23T15:08:26.971Z,2.60
2024-04-23T15:10:54.303Z,2.58
2024-04-23T15:13:23.181Z,2.72
2024-04-23T15:15:59.201Z,2.78
2024-04-23T15:18:26.506Z,3.07
2024-04-23T15:20:53.460Z,3.10
2024-04-23T15:23:20.318Z,2.80
2024-04-23T15:25:49.180Z,2.47
2024-04-23T15:28:17.798Z,2.80
2024-04-23T15:30:44.640Z,3.15
2024-04-23T15:33:11.614Z,2.55
2024-04-23T15:35:38.674Z,2.95
2024-04-23T15:38:05.460Z,2.50
2024-04-23T15:40:32.240Z,2.80
2024-04-23T15:42:59.059Z,2.05
2024-04-23T15:45:26.348Z,2.65
2024-04-23T15:47:54.958Z,2.65
2024-04-23T15:50:22.096Z,2.53
2024-04-23T15:52:48.957Z,2.78
2024-04-23T15:55:17.027Z,2.95
2024-04-23T15:57:43.794Z,3.08
2024-04-23T16:00:11.080Z,2.90
2024-04-23T16:02:37.981Z,2.60
2024-04-23T16:05:05.179Z,2.83
2024-04-23T16:07:32.170Z,2.35
2024-04-23T16:09:58.974Z,2.63
2024-04-23T16:12:25.851Z,2.35
2024-04-23T16:14:52.679Z,3.22
2024-04-23T16:17:19.637Z,2.47
2024-04-23T16:19:46.620Z,2.78
2024-04-23T16:22:13.448Z,3.67
2024-04-23T16:24:40.225Z,2.50
2024-04-23T16:27:07.056Z,3.40
2024-04-23T16:29:33.932Z,2.60
2024-04-23T16:32:02.205Z,3.10
2024-04-23T16:34:29.296Z,2.40
2024-04-23T16:36:56.133Z,2.58
2024-04-23T16:39:26.074Z,2.28
2024-04-23T16:41:53.774Z,3.13
2024-04-23T16:44:20.689Z,2.50
2024-04-23T16:46:50.391Z,2.58
2024-04-23T16:49:17.971Z,2.60
2024-04-23T16:51:44.875Z,2.95
2024-04-23T16:54:11.978Z,2.67
2024-04-23T16:56:38.859Z,2.50
2024-04-23T16:59:05.762Z,3.15
2024-04-23T17:01:32.550Z,2.03
2024-04-23T17:03:59.869Z,2.63
2024-04-23T17:06:26.802Z,2.83
2024-04-23T17:08:53.716Z,2.60
2024-04-23T17:11:20.690Z,2.50
2024-04-23T17:13:47.695Z,2.80
2024-04-23T17:16:18.612Z,2.60
2024-04-23T17:18:45.753Z,2.15
2024-04-23T17:21:17.319Z,2.97
2024-04-23T17:23:45.732Z,3.15
2024-04-23T17:26:13.072Z,2.95
2024-04-23T17:28:40.390Z,2.30
2024-04-23T17:31:08.553Z,2.92
2024-04-23T17:33:36.048Z,2.80
2024-04-23T17:36:03.347Z,2.65
2024-04-23T17:38:30.140Z,2.58
2024-04-23T17:40:57.196Z,3.00
2024-04-23T17:43:24.054Z,2.72
2024-04-23T17:45:50.815Z,2.90
2024-04-23T17:48:17.916Z,2.92
2024-04-23T17:50:44.726Z,2.53
2024-04-23T17:53:11.590Z,2.65
2024-04-23T17:55:38.842Z,2.50
2024-04-23T17:58:05.739Z,2.47
2024-04-23T18:00:32.508Z,2.50
2024-04-23T18:02:59.384Z,2.50
2024-04-23T18:05:26.223Z,2.65
2024-04-23T18:07:53.126Z,2.60
2024-04-23T18:10:19.914Z,2.00
2024-04-23T18:12:47.399Z,2.28
2024-04-23T18:15:14.284Z,2.60
2024-04-23T18:17:41.188Z,2.60
2024-04-23T18:20:09.703Z,2.47
2024-04-23T18:22:37.326Z,2.50
2024-04-23T18:25:04.678Z,1.92
2024-04-23T18:27:31.543Z,2.55
2024-04-23T18:29:58.388Z,2.05
2024-04-23T18:32:25.566Z,2.30
2024-04-23T18:34:52.661Z,2.42
2024-04-23T18:37:19.454Z,2.63
2024-04-23T18:39:46.314Z,2.25
2024-04-23T18:42:13.734Z,2.50
2024-04-23T18:44:40.713Z,2.45
2024-04-23T18:47:07.732Z,2.08
2024-04-23T18:49:34.653Z,2.70
2024-04-23T18:52:01.662Z,2.45
2024-04-23T18:54:28.750Z,2.00
2024-04-23T18:56:55.983Z,2.83
2024-04-23T18:59:24.125Z,2.55
2024-04-23T19:01:51.180Z,2.80
2024-04-23T19:04:18.100Z,2.53
2024-04-23T19:06:44.892Z,2.65
2024-04-23T19:09:11.720Z,3.15
2024-04-23T19:11:38.742Z,2.67
2024-04-23T19:14:14.467Z,2.58
2024-04-23T19:16:44.987Z,2.95
2024-04-23T19:19:12.325Z,2.35
2024-04-23T19:21:39.237Z,2.97
2024-04-23T19:24:06.680Z,2.97
2024-04-23T19:26:33.702Z,3.08
2024-04-23T19:29:00.771Z,2.53
2024-04-23T19:31:29.991Z,2.83
2024-04-23T19:33:56.871Z,2.70
2024-04-23T19:36:24.872Z,3.38
2024-04-23T19:38:51.712Z,2.65
2024-04-23T19:41:18.751Z,2.28
2024-04-23T19:43:52.100Z,2.95
2024-04-23T19:46:21.463Z,2.72
2024-04-23T19:48:50.576Z,2.58
2024-04-23T19:51:21.502Z,2.83
2024-04-23T19:53:51.498Z,2.72
2024-04-23T19:56:31.727Z,0.40
2024-04-23T19:59:01.479Z,2.40
2024-04-23T20:01:29.407Z,2.40
2024-04-23T20:03:56.818Z,2.50
2024-04-23T20:06:23.863Z,2.78
2024-04-23T20:08:50.793Z,3.08
2024-04-23T20:11:17.802Z,2.42
2024-04-23T20:13:44.825Z,2.53
2024-04-23T20:16:11.818Z,2.25
2024-04-23T20:18:38.770Z,2.67
2024-04-23T20:21:15.657Z,3.05
2024-04-23T20:26:14.770Z,2.95
2024-04-23T20:28:42.798Z,3.38
2024-04-23T20:31:09.802Z,2.35
2024-04-23T20:33:36.866Z,2.45
2024-04-23T20:36:04.292Z,2.80
2024-04-23T20:38:31.583Z,2.50
2024-04-23T20:40:58.432Z,2.78
2024-04-23T20:43:25.382Z,2.83
2024-04-23T20:45:52.213Z,2.78
2024-04-23T20:48:19.311Z,0.77
2024-04-23T20:50:54.112Z,3.00
2024-04-23T20:53:21.167Z,0.82
2024-04-23T20:55:48.003Z,2.45
2024-04-23T20:58:14.828Z,2.30
2024-04-23T21:00:41.626Z,2.50
2024-04-23T21:03:10.573Z,0.52
2024-04-23T21:05:37.762Z,0.40
2024-04-23T21:08:07.989Z,2.75
2024-04-23T21:10:36.656Z,2.63
2024-04-23T21:13:04.364Z,2.78
2024-04-23T21:15:33.284Z,2.30
2024-04-23T21:18:00.443Z,2.85
2024-04-23T21:20:28.140Z,3.50
2024-04-23T21:22:55.246Z,2.83
2024-04-23T21:25:22.167Z,3.42
2024-04-23T21:27:49.031Z,2.47
2024-04-23T21:30:15.887Z,3.00
2024-04-23T21:32:42.857Z,2.97
2024-04-23T21:35:09.891Z,2.90
2024-04-23T21:37:36.727Z,2.83
2024-04-23T21:40:03.792Z,2.75
2024-04-23T21:42:35.879Z,3.28
2024-04-23T21:45:08.339Z,2.88
2024-04-23T21:47:35.733Z,1.48
2024-04-23T21:50:03.008Z,2.53
2024-04-23T21:52:39.303Z,3.08
2024-04-23T21:55:09.064Z,2.50
2024-04-23T21:57:36.154Z,3.33
2024-04-23T22:00:03.790Z,2.92
2024-04-23T22:02:30.805Z,2.38
2024-04-23T22:04:57.777Z,2.70
2024-04-23T22:07:24.577Z,2.85
2024-04-23T22:09:51.362Z,2.90
2024-04-23T22:12:18.164Z,2.75
2024-04-23T22:14:44.922Z,2.83
2024-04-23T22:17:12.621Z,2.75
2024-04-23T22:19:39.511Z,2.78
2024-04-23T22:22:06.354Z,2.78
2024-04-23T22:24:33.303Z,2.58
2024-04-23T22:27:00.071Z,3.28
2024-04-23T22:29:26.984Z,3.30
2024-04-23T22:31:53.787Z,2.90
2024-04-23T22:34:20.589Z,4.00
2024-04-23T22:36:47.390Z,3.35
2024-04-23T22:39:14.139Z,3.60
2024-04-23T22:41:40.905Z,3.10
2024-04-23T22:44:07.763Z,2.83
2024-04-23T22:46:34.614Z,2.88
2024-04-23T22:49:03.643Z,2.90
2024-04-23T22:51:30.560Z,3.03
2024-04-23T22:53:57.609Z,3.17
2024-04-23T22:56:24.617Z,2.78
2024-04-23T22:58:51.432Z,3.38
2024-04-23T23:01:18.237Z,3.67
2024-04-23T23:03:45.127Z,2.78
2024-04-23T23:06:12.015Z,2.95
2024-04-23T23:08:38.824Z,3.63
2024-04-23T23:11:05.781Z,3.35
2024-04-23T23:13:32.660Z,3.30
2024-04-23T23:15:59.456Z,3.30
2024-04-23T23:18:26.333Z,3.63
2024-04-23T23:20:53.081Z,3.10
2024-04-23T23:23:20.016Z,3.15
2024-04-23T23:25:46.945Z,3.25
2024-04-23T23:28:13.763Z,2.78
2024-04-23T23:30:40.562Z,3.40
2024-04-23T23:33:07.425Z,3.20
2024-04-23T23:35:34.377Z,3.33
2024-04-23T23:38:01.167Z,3.80
2024-04-23T23:40:27.984Z,3.22
2024-04-23T23:42:56.244Z,4.25
2024-04-23T23:45:26.173Z,3.00
2024-04-23T23:47:54.544Z,3.50
2024-04-23T23:50:21.575Z,3.40
2024-04-23T23:52:48.422Z,3.38
2024-04-23T23:55:15.274Z,3.75
2024-04-23T23:57:42.592Z,4.32
